Time,TemperatureF,DewpointF,PressureIn,WindDirection,WindDirectionDegrees,WindSpeedMPH,WindSpeedGustMPH,Humidity,HourlyPrecipIn,Conditions,Clouds,dailyrainin,SoftwareType,DateUTC
2013-03-02 00:01:00,69.0,24.0,30.01,North,0,0.0,0.0,18,0.00,,,0.00,,2013-03-02 08:01:00,
2013-03-02 00:21:00,69.0,25.0,30.01,North,0,0.0,0.0,19,0.00,,,0.00,,2013-03-02 08:21:00,
2013-03-02 00:52:00,68.0,24.0,30.00,North,0,0.0,0.0,19,0.00,,,0.00,,2013-03-02 08:52:00,
2013-03-02 01:01:00,68.0,24.0,30.01,North,0,0.0,0.0,19,0.00,,,0.00,,2013-03-02 09:01:00,
2013-03-02 01:11:00,68.0,24.0,30.01,North,0,0.0,0.0,19,0.00,,,0.00,,2013-03-02 09:11:00,
2013-03-02 01:21:00,68.0,24.0,30.01,North,0,0.0,0.0,19,0.00,,,0.00,,2013-03-02 09:21:00,
2013-03-02 01:52:00,68.0,24.0,30.01,North,0,0.0,0.0,19,0.00,,,0.00,,2013-03-02 09:52:00,
2013-03-02 02:01:00,68.0,24.0,29.99,North,0,0.0,0.0,19,0.00,,,0.00,,2013-03-02 10:01:00,
2013-03-02 02:21:00,67.0,23.0,29.99,North,0,0.0,0.0,19,0.00,,,0.00,,2013-03-02 10:21:00,
2013-03-02 02:41:00,67.0,23.0,29.99,North,0,0.0,0.0,19,0.00,,,0.00,,2013-03-02 10:41:00,
2013-03-02 02:52:00,67.0,25.0,29.98,North,0,0.0,0.0,20,0.00,,,0.00,,2013-03-02 10:52:00,
2013-03-02 03:01:00,67.0,25.0,29.98,North,0,0.0,0.0,20,0.00,,,0.00,,2013-03-02 11:01:00,
2013-03-02 03:11:00,67.0,25.0,29.98,North,0,0.0,0.0,20,0.00,,,0.00,,2013-03-02 11:11:00,
2013-03-02 03:21:00,67.0,25.0,29.97,North,0,0.0,0.0,20,0.00,,,0.00,,2013-03-02 11:21:00,
2013-03-02 03:41:00,67.0,25.0,29.97,North,0,0.0,0.0,20,0.00,,,0.00,,2013-03-02 11:41:00,
2013-03-02 03:52:00,67.0,25.0,29.97,North,0,0.0,0.0,20,0.00,,,0.00,,2013-03-02 11:52:00,
2013-03-02 04:02:00,67.0,25.0,29.97,North,0,0.0,0.0,20,0.00,,,0.00,,2013-03-02 12:02:00,
2013-03-02 04:11:00,67.0,25.0,29.97,North,0,0.0,0.0,20,0.00,,,0.00,,2013-03-02 12:11:00,
2013-03-02 04:21:00,67.0,25.0,29.97,North,0,0.0,0.0,20,0.00,,,0.00,,2013-03-02 12:21:00,
2013-03-02 04:42:00,67.0,25.0,29.97,North,0,0.0,0.0,20,0.00,,,0.00,,2013-03-02 12:42:00,
2013-03-02 04:53:00,67.0,25.0,29.96,North,0,0.0,0.0,20,0.00,,,0.00,,2013-03-02 12:53:00,
2013-03-02 05:01:00,67.0,25.0,29.97,North,0,0.0,0.0,20,0.00,,,0.00,,2013-03-02 13:01:00,
2013-03-02 05:11:00,67.0,25.0,29.97,North,0,0.0,0.0,20,0.00,,,0.00,,2013-03-02 13:11:00,
2013-03-02 05:21:00,67.0,25.0,29.97,North,0,0.0,0.0,20,0.00,,,0.00,,2013-03-02 13:21:00,
2013-03-02 05:31:00,67.0,25.0,29.97,North,0,0.0,0.0,20,0.00,,,0.00,,2013-03-02 13:31:00,
2013-03-02 05:41:00,67.0,25.0,29.97,North,0,0.0,0.0,20,0.00,,,0.00,,2013-03-02 13:41:00,
2013-03-02 05:52:00,67.0,25.0,29.97,North,0,0.0,0.0,20,0.00,,,0.00,,2013-03-02 13:52:00,
2013-03-02 06:01:00,67.0,25.0,29.96,North,0,0.0,0.0,20,0.00,,,0.00,,2013-03-02 14:01:00,
2013-03-02 06:11:00,67.0,25.0,29.96,North,0,0.0,0.0,20,0.00,,,0.00,,2013-03-02 14:11:00,
2013-03-02 06:21:00,67.0,26.0,29.96,North,0,0.0,0.0,21,0.00,,,0.00,,2013-03-02 14:21:00,
2013-03-02 06:31:00,67.0,26.0,29.96,North,0,0.0,0.0,21,0.00,,,0.00,,2013-03-02 14:31:00,
2013-03-02 06:41:00,67.0,26.0,29.96,North,0,0.0,0.0,21,0.00,,,0.00,,2013-03-02 14:41:00,
2013-03-02 06:52:00,67.0,26.0,29.96,North,0,0.0,0.0,21,0.00,,,0.00,,2013-03-02 14:52:00,
2013-03-02 07:01:00,67.0,26.0,29.97,North,0,0.0,0.0,21,0.00,,,0.00,,2013-03-02 15:01:00,
2013-03-02 07:11:00,67.0,26.0,29.97,North,0,0.0,0.0,21,0.00,,,0.00,,2013-03-02 15:11:00,
2013-03-02 07:52:00,67.0,26.0,29.98,North,0,0.0,0.0,21,0.00,,,0.00,,2013-03-02 15:52:00,
2013-03-02 08:01:00,68.0,27.0,29.98,North,0,0.0,0.0,21,0.00,,,0.00,,2013-03-02 16:01:00,
2013-03-02 08:11:00,68.0,27.0,29.98,North,0,0.0,0.0,21,0.00,,,0.00,,2013-03-02 16:11:00,
2013-03-02 08:21:00,67.0,26.0,29.99,North,0,0.0,0.0,21,0.00,,,0.00,,2013-03-02 16:21:00,
2013-03-02 08:31:00,67.0,26.0,29.99,North,0,0.0,0.0,21,0.00,,,0.00,,2013-03-02 16:31:00,
2013-03-02 08:41:00,67.0,26.0,29.99,North,0,0.0,0.0,21,0.00,,,0.00,,2013-03-02 16:41:00,
2013-03-02 08:52:00,67.0,26.0,29.99,North,0,0.0,0.0,21,0.00,,,0.00,,2013-03-02 16:52:00,
2013-03-02 09:01:00,68.0,28.0,29.99,North,0,0.0,0.0,22,0.00,,,0.00,,2013-03-02 17:01:00,
2013-03-02 09:11:00,68.0,28.0,29.99,North,0,0.0,0.0,22,0.00,,,0.00,,2013-03-02 17:11:00,
2013-03-02 09:21:00,68.0,28.0,29.99,North,0,0.0,0.0,22,0.00,,,0.00,,2013-03-02 17:21:00,
2013-03-02 09:31:00,68.0,28.0,29.99,North,0,0.0,0.0,22,0.00,,,0.00,,2013-03-02 17:31:00,
2013-03-02 09:41:00,68.0,28.0,29.99,North,0,0.0,0.0,22,0.00,,,0.00,,2013-03-02 17:41:00,
2013-03-02 09:52:00,69.0,27.0,29.99,North,0,0.0,0.0,21,0.00,,,0.00,,2013-03-02 17:52:00,
2013-03-02 10:01:00,71.0,29.0,29.99,North,0,0.0,0.0,21,0.00,,,0.00,,2013-03-02 18:01:00,
2013-03-02 10:11:00,71.0,29.0,29.99,North,0,0.0,0.0,21,0.00,,,0.00,,2013-03-02 18:11:00,
2013-03-02 10:21:00,72.0,30.0,30.00,North,0,0.0,0.0,21,0.00,,,0.00,,2013-03-02 18:21:00,
2013-03-02 10:31:00,72.0,30.0,30.00,North,0,0.0,0.0,21,0.00,,,0.00,,2013-03-02 18:31:00,
2013-03-02 10:41:00,72.0,30.0,30.00,North,0,0.0,0.0,21,0.00,,,0.00,,2013-03-02 18:41:00,
2013-03-02 10:52:00,72.0,30.0,30.00,North,0,0.0,0.0,21,0.00,,,0.00,,2013-03-02 18:52:00,
2013-03-02 11:01:00,73.0,30.0,29.99,North,0,0.0,0.0,20,0.00,,,0.00,,2013-03-02 19:01:00,
2013-03-02 11:11:00,73.0,30.0,29.99,North,0,0.0,0.0,20,0.00,,,0.00,,2013-03-02 19:11:00,
2013-03-02 11:21:00,73.0,28.0,29.99,North,0,0.0,0.0,19,0.00,,,0.00,,2013-03-02 19:21:00,
2013-03-02 11:31:00,73.0,28.0,29.99,North,0,0.0,0.0,19,0.00,,,0.00,,2013-03-02 19:31:00,
2013-03-02 11:42:00,73.0,28.0,29.99,North,0,0.0,0.0,19,0.00,,,0.00,,2013-03-02 19:42:00,
2013-03-02 11:52:00,73.0,28.0,29.99,North,0,0.0,0.0,19,0.00,,,0.00,,2013-03-02 19:52:00,
2013-03-02 12:01:00,73.0,30.0,29.98,North,0,0.0,0.0,20,0.00,,,0.00,,2013-03-02 20:01:00,
2013-03-02 12:11:00,73.0,30.0,29.98,North,0,0.0,0.0,20,0.00,,,0.00,,2013-03-02 20:11:00,
2013-03-02 12:21:00,72.0,32.0,29.97,North,0,0.0,0.0,23,0.00,,,0.00,,2013-03-02 20:21:00,
2013-03-02 12:31:00,72.0,32.0,29.97,North,0,0.0,0.0,23,0.00,,,0.00,,2013-03-02 20:31:00,
2013-03-02 12:41:00,72.0,32.0,29.97,North,0,0.0,0.0,23,0.00,,,0.00,,2013-03-02 20:41:00,
2013-03-02 12:52:00,71.0,36.0,29.95,North,0,0.0,0.0,28,0.00,,,0.00,,2013-03-02 20:52:00,
2013-03-02 13:02:00,69.0,34.0,29.95,North,0,0.0,0.0,27,0.00,,,0.00,,2013-03-02 21:02:00,
2013-03-02 13:11:00,69.0,34.0,29.95,North,0,0.0,0.0,27,0.00,,,0.00,,2013-03-02 21:11:00,
2013-03-02 13:21:00,70.0,34.0,29.93,North,0,0.0,0.0,27,0.00,,,0.00,,2013-03-02 21:21:00,
2013-03-02 13:31:00,70.0,34.0,29.93,North,0,0.0,0.0,27,0.00,,,0.00,,2013-03-02 21:31:00,
2013-03-02 13:41:00,70.0,34.0,29.93,North,0,0.0,0.0,27,0.00,,,0.00,,2013-03-02 21:41:00,
2013-03-02 13:52:00,69.0,32.0,29.93,North,0,0.0,0.0,25,0.00,,,0.00,,2013-03-02 21:52:00,
2013-03-02 14:01:00,69.0,27.0,29.92,North,0,0.0,0.0,21,0.00,,,0.00,,2013-03-02 22:01:00,
2013-03-02 14:11:00,69.0,27.0,29.92,North,0,0.0,0.0,21,0.00,,,0.00,,2013-03-02 22:11:00,
2013-03-02 14:21:00,69.0,27.0,29.92,North,0,0.0,0.0,21,0.00,,,0.00,,2013-03-02 22:21:00,
2013-03-02 14:31:00,69.0,27.0,29.92,North,0,0.0,0.0,21,0.00,,,0.00,,2013-03-02 22:31:00,
2013-03-02 14:41:00,69.0,27.0,29.92,North,0,0.0,0.0,21,0.00,,,0.00,,2013-03-02 22:41:00,
2013-03-02 14:52:00,71.0,30.0,29.91,North,0,0.0,0.0,22,0.00,,,0.00,,2013-03-02 22:52:00,
2013-03-02 15:01:00,69.0,30.0,29.91,North,0,0.0,0.0,23,0.00,,,0.00,,2013-03-02 23:01:00,
2013-03-02 15:11:00,68.0,27.0,29.90,North,0,0.0,0.0,21,0.00,,,0.00,,2013-03-02 23:11:00,
2013-03-02 15:21:00,68.0,27.0,29.90,North,0,0.0,0.0,21,0.00,,,0.00,,2013-03-02 23:21:00,
2013-03-02 15:31:00,68.0,27.0,29.90,North,0,0.0,0.0,21,0.00,,,0.00,,2013-03-02 23:31:00,
2013-03-02 15:41:00,68.0,27.0,29.90,North,0,0.0,0.0,21,0.00,,,0.00,,2013-03-02 23:41:00,
2013-03-02 15:42:00,71.0,31.0,29.89,North,0,0.0,0.0,23,0.00,,,0.00,,2013-03-02 23:42:00,
2013-03-02 15:52:00,71.0,28.0,29.89,North,0,0.0,0.0,20,0.00,,,0.00,,2013-03-02 23:52:00,
2013-03-02 16:02:00,71.0,31.0,29.89,North,0,0.0,0.0,23,0.00,,,0.00,,2013-03-03 00:02:00,
2013-03-02 16:11:00,71.0,31.0,29.89,North,0,0.0,0.0,23,0.00,,,0.00,,2013-03-03 00:11:00,
2013-03-02 16:22:00,71.0,31.0,29.89,North,0,0.0,0.0,23,0.00,,,0.00,,2013-03-03 00:22:00,
2013-03-02 16:31:00,71.0,31.0,29.89,North,0,0.0,0.0,23,0.00,,,0.00,,2013-03-03 00:31:00,
2013-03-02 16:52:00,70.0,27.0,29.88,North,0,0.0,0.0,20,0.00,,,0.00,,2013-03-03 00:52:00,
2013-03-02 17:01:00,69.0,25.0,29.88,North,0,0.0,0.0,19,0.00,,,0.00,,2013-03-03 01:01:00,
2013-03-02 17:11:00,69.0,25.0,29.88,North,0,0.0,0.0,19,0.00,,,0.00,,2013-03-03 01:11:00,
2013-03-02 17:21:00,68.0,23.0,29.88,North,0,0.0,0.0,18,0.00,,,0.00,,2013-03-03 01:21:00,
2013-03-02 17:31:00,68.0,23.0,29.88,North,0,0.0,0.0,18,0.00,,,0.00,,2013-03-03 01:31:00,
2013-03-02 17:41:00,68.0,23.0,29.88,North,0,0.0,0.0,18,0.00,,,0.00,,2013-03-03 01:41:00,
2013-03-02 17:52:00,69.0,24.0,29.87,North,0,0.0,0.0,18,0.00,,,0.00,,2013-03-03 01:52:00,
2013-03-02 18:01:00,68.0,23.0,29.88,North,0,0.0,0.0,18,0.00,,,0.00,,2013-03-03 02:01:00,
2013-03-02 18:11:00,68.0,23.0,29.88,North,0,0.0,0.0,18,0.00,,,0.00,,2013-03-03 02:11:00,
2013-03-02 18:21:00,68.0,23.0,29.88,North,0,0.0,0.0,18,0.00,,,0.00,,2013-03-03 02:21:00,
2013-03-02 18:31:00,68.0,23.0,29.88,North,0,0.0,0.0,18,0.00,,,0.00,,2013-03-03 02:31:00,
2013-03-02 18:41:00,68.0,23.0,29.88,North,0,0.0,0.0,18,0.00,,,0.00,,2013-03-03 02:41:00,
2013-03-02 18:52:00,68.0,22.0,29.88,North,0,0.0,0.0,17,0.00,,,0.00,,2013-03-03 02:52:00,
2013-03-02 19:01:00,68.0,20.0,29.88,North,0,0.0,0.0,16,0.00,,,0.00,,2013-03-03 03:01:00,
2013-03-02 19:11:00,68.0,20.0,29.88,North,0,0.0,0.0,16,0.00,,,0.00,,2013-03-03 03:11:00,
2013-03-02 19:21:00,67.0,21.0,29.89,North,0,0.0,0.0,17,0.00,,,0.00,,2013-03-03 03:21:00,
2013-03-02 19:31:00,67.0,21.0,29.89,North,0,0.0,0.0,17,0.00,,,0.00,,2013-03-03 03:31:00,
2013-03-02 19:41:00,67.0,21.0,29.89,North,0,0.0,0.0,17,0.00,,,0.00,,2013-03-03 03:41:00,
2013-03-02 19:52:00,67.0,21.0,29.89,North,0,0.0,0.0,17,0.00,,,0.00,,2013-03-03 03:52:00,
2013-03-02 20:01:00,67.0,21.0,29.88,North,0,0.0,0.0,17,0.00,,,0.00,,2013-03-03 04:01:00,
2013-03-02 20:11:00,67.0,21.0,29.88,North,0,0.0,0.0,17,0.00,,,0.00,,2013-03-03 04:11:00,
2013-03-02 20:21:00,66.0,21.0,29.89,North,0,0.0,0.0,18,0.00,,,0.00,,2013-03-03 04:21:00,
2013-03-02 20:31:00,66.0,21.0,29.89,North,0,0.0,0.0,18,0.00,,,0.00,,2013-03-03 04:31:00,
2013-03-02 20:41:00,66.0,21.0,29.89,North,0,0.0,0.0,18,0.00,,,0.00,,2013-03-03 04:41:00,
2013-03-02 20:52:00,66.0,23.0,29.88,North,0,0.0,0.0,19,0.00,,,0.00,,2013-03-03 04:52:00,
2013-03-02 21:01:00,65.0,24.0,29.89,North,0,0.0,0.0,21,0.00,,,0.00,,2013-03-03 05:01:00,
2013-03-02 21:11:00,65.0,24.0,29.89,North,0,0.0,0.0,21,0.00,,,0.00,,2013-03-03 05:11:00,
2013-03-02 21:21:00,65.0,27.0,29.89,North,0,0.0,0.0,24,0.00,,,0.00,,2013-03-03 05:21:00,
2013-03-02 21:32:00,65.0,27.0,29.89,North,0,0.0,0.0,24,0.00,,,0.00,,2013-03-03 05:32:00,
2013-03-02 21:42:00,65.0,27.0,29.89,North,0,0.0,0.0,24,0.00,,,0.00,,2013-03-03 05:42:00,
2013-03-02 21:52:00,64.0,27.0,29.90,North,0,0.0,0.0,25,0.00,,,0.00,,2013-03-03 05:52:00,
2013-03-02 22:01:00,64.0,25.0,29.89,North,0,0.0,0.0,23,0.00,,,0.00,,2013-03-03 06:01:00,
2013-03-02 22:11:00,64.0,25.0,29.89,North,0,0.0,0.0,23,0.00,,,0.00,,2013-03-03 06:11:00,
2013-03-02 22:21:00,64.0,29.0,29.88,North,0,0.0,0.0,27,0.00,,,0.00,,2013-03-03 06:21:00,
2013-03-02 22:31:00,64.0,29.0,29.88,North,0,0.0,0.0,27,0.00,,,0.00,,2013-03-03 06:31:00,
2013-03-02 22:42:00,64.0,29.0,29.88,North,0,0.0,0.0,27,0.00,,,0.00,,2013-03-03 06:42:00,
2013-03-02 22:52:00,63.0,29.0,29.88,North,0,0.0,0.0,27,0.00,,,0.00,,2013-03-03 06:52:00,
2013-03-02 23:01:00,63.0,26.0,29.88,North,0,0.0,0.0,24,0.00,,,0.00,,2013-03-03 07:01:00,
2013-03-02 23:11:00,63.0,26.0,29.88,North,0,0.0,0.0,24,0.00,,,0.00,,2013-03-03 07:11:00,
2013-03-02 23:21:00,64.0,28.0,29.88,North,0,0.0,0.0,26,0.00,,,0.00,,2013-03-03 07:21:00,
2013-03-02 23:31:00,64.0,28.0,29.88,North,0,0.0,0.0,26,0.00,,,0.00,,2013-03-03 07:31:00,
2013-03-02 23:42:00,64.0,28.0,29.88,North,0,0.0,0.0,26,0.00,,,0.00,,2013-03-03 07:42:00,
2013-03-02 23:51:00,63.0,30.0,29.86,North,0,0.0,0.0,29,0.00,,,0.00,,2013-03-03 07:51:00,